METAR Data
IDs: Format: Raw Decoded Include TAF

Data at: 0552 UTC 28 Sep 2022

METAR for:KHCR (Heber City Muni, UT, US)
Text:KHCR 280530Z AUTO 00000KT 10SM CLR 07/00 A3029 RMK AO2
Temperature: 7.0°C ( 45°F)
Dewpoint: 0.0°C ( 32°F) [RH = 61%]
Pressure (altimeter):30.29 inches Hg (1025.8 mb)
Winds:calm
Visibility:10 or more sm (16+ km)
Ceiling:at least 12,000 feet AGL
Clouds:sky clear below 12,000 feet AGL
QC Flag:automated observation with no human augmentation